createdAt,value
2023-01-30T00:01:28.367Z,2.37
2023-01-30T00:03:55.263Z,2.34
2023-01-30T00:06:22.468Z,2.42
2023-01-30T00:08:49.309Z,2.51
2023-01-30T00:11:17.873Z,2.46
2023-01-30T00:13:44.778Z,2.52
2023-01-30T00:16:12.008Z,2.62
2023-01-30T00:18:40.080Z,2.65
2023-01-30T00:21:08.770Z,2.71
2023-01-30T00:23:36.296Z,2.70
2023-01-30T00:26:04.303Z,2.62
2023-01-30T00:28:31.620Z,2.54
2023-01-30T00:30:58.456Z,2.58
2023-01-30T00:33:26.885Z,2.41
2023-01-30T00:35:55.602Z,2.41
2023-01-30T00:38:23.560Z,2.51
2023-01-30T00:40:50.873Z,2.35
2023-01-30T00:43:48.829Z,2.20
2023-01-30T00:46:48.724Z,2.03
2023-01-30T00:49:15.806Z,1.92
2023-01-30T00:51:42.825Z,1.98
2023-01-30T00:54:09.902Z,2.16
2023-01-30T00:56:36.703Z,2.16
2023-01-30T00:59:03.516Z,2.25
2023-01-30T01:01:30.357Z,2.31
2023-01-30T01:03:57.185Z,2.22
2023-01-30T01:06:23.870Z,2.18
2023-01-30T01:08:50.718Z,2.14
2023-01-30T01:11:24.711Z,2.14
2023-01-30T01:13:59.350Z,2.22
2023-01-30T01:16:27.298Z,2.25
2023-01-30T01:18:54.714Z,2.28
2023-01-30T01:21:22.770Z,2.37
2023-01-30T01:23:53.886Z,2.47
2023-01-30T01:26:20.897Z,2.37
2023-01-30T01:28:47.893Z,2.23
2023-01-30T01:31:16.889Z,2.13
2023-01-30T01:33:43.649Z,2.09
2023-01-30T01:36:10.683Z,2.20
2023-01-30T01:38:37.734Z,2.35
2023-01-30T01:41:10.063Z,2.25
2023-01-30T01:43:39.752Z,2.26
2023-01-30T01:46:18.372Z,2.15
2023-01-30T01:48:49.174Z,1.90
2023-01-30T01:51:20.564Z,2.00
2023-01-30T01:53:59.425Z,2.05
2023-01-30T01:56:26.943Z,2.16
2023-01-30T01:59:10.491Z,2.08
2023-01-30T02:01:37.258Z,2.05
2023-01-30T02:04:09.997Z,1.98
2023-01-30T02:06:39.362Z,1.97
2023-01-30T02:09:10.236Z,2.03
2023-01-30T02:11:51.069Z,2.11
2023-01-30T02:14:19.705Z,2.09
2023-01-30T02:16:47.499Z,2.18
2023-01-30T02:19:31.649Z,2.22
2023-01-30T02:22:32.213Z,2.12
2023-01-30T02:25:21.134Z,1.99
2023-01-30T02:28:25.618Z,1.85
2023-01-30T02:31:05.997Z,1.90
2023-01-30T02:33:53.134Z,1.69
2023-01-30T02:36:28.968Z,1.45
2023-01-30T02:39:14.519Z,1.37
2023-01-30T02:41:48.634Z,1.35
2023-01-30T02:44:30.371Z,1.33
2023-01-30T02:47:23.665Z,1.44
2023-01-30T02:50:07.778Z,1.35
2023-01-30T02:52:35.854Z,1.34
2023-01-30T02:55:09.236Z,1.26
2023-01-30T02:57:36.072Z,1.37
2023-01-30T03:00:04.986Z,1.36
2023-01-30T03:02:50.707Z,1.45
2023-01-30T03:05:48.828Z,1.39
2023-01-30T03:08:58.862Z,1.27
2023-01-30T03:11:33.576Z,1.24
2023-01-30T03:14:14.692Z,1.22
2023-01-30T03:16:41.964Z,1.23
2023-01-30T03:19:13.593Z,1.32
2023-01-30T03:21:42.355Z,1.40
2023-01-30T03:24:09.173Z,1.42
2023-01-30T03:26:40.918Z,1.48
2023-01-30T03:29:07.701Z,1.39
2023-01-30T03:31:34.482Z,1.52
2023-01-30T03:34:01.346Z,1.60
2023-01-30T03:36:29.464Z,1.62
2023-01-30T03:38:56.497Z,1.53
2023-01-30T03:41:23.656Z,1.61
2023-01-30T03:43:50.461Z,1.57
2023-01-30T03:46:17.300Z,1.47
2023-01-30T03:48:44.119Z,1.17
2023-01-30T03:51:12.603Z,1.06
2023-01-30T03:53:39.391Z,1.04
2023-01-30T03:56:06.295Z,1.16
2023-01-30T03:58:35.252Z,1.17
2023-01-30T04:01:14.667Z,1.07
2023-01-30T04:03:42.223Z,0.99
2023-01-30T04:06:09.015Z,1.02
2023-01-30T04:08:35.788Z,1.21
2023-01-30T04:11:03.567Z,1.23
2023-01-30T04:13:30.368Z,1.07
2023-01-30T04:16:16.691Z,1.13
2023-01-30T04:19:01.991Z,1.20
2023-01-30T04:21:31.954Z,1.27
2023-01-30T04:23:58.848Z,1.23
2023-01-30T04:26:25.699Z,1.27
2023-01-30T04:28:52.664Z,1.23
2023-01-30T04:31:19.501Z,1.17
2023-01-30T04:34:03.917Z,1.09
2023-01-30T04:36:30.931Z,1.08
2023-01-30T04:38:58.326Z,1.25
2023-01-30T04:41:26.222Z,1.16
2023-01-30T04:43:57.495Z,1.09
2023-01-30T04:46:50.591Z,1.25
2023-01-30T04:49:17.694Z,1.29
2023-01-30T04:51:44.877Z,1.33
2023-01-30T04:54:11.734Z,1.37
2023-01-30T04:56:38.452Z,1.33
2023-01-30T04:59:06.371Z,1.18
2023-01-30T05:01:39.321Z,1.20
2023-01-30T05:04:07.483Z,1.43
2023-01-30T05:06:35.267Z,1.42
2023-01-30T05:09:03.121Z,1.48
2023-01-30T05:11:30.573Z,1.52
2023-01-30T05:13:57.457Z,1.42
2023-01-30T05:16:24.615Z,1.41
2023-01-30T05:18:51.741Z,1.46
2023-01-30T05:21:27.994Z,1.36
2023-01-30T05:23:56.382Z,1.35
2023-01-30T05:26:23.786Z,1.30
2023-01-30T05:28:57.865Z,1.19
2023-01-30T05:31:25.404Z,0.93
2023-01-30T05:33:52.687Z,0.87
2023-01-30T05:36:21.329Z,0.83
2023-01-30T05:38:48.144Z,0.68
2023-01-30T05:41:16.688Z,0.64
2023-01-30T05:43:44.175Z,0.68
2023-01-30T05:46:13.514Z,0.82
2023-01-30T05:48:40.639Z,0.84
2023-01-30T05:51:15.775Z,0.91
2023-01-30T05:53:42.522Z,1.03
2023-01-30T05:56:09.486Z,0.97
2023-01-30T05:58:36.193Z,0.91
2023-01-30T06:01:05.633Z,0.96
2023-01-30T06:03:33.035Z,0.99
2023-01-30T06:06:02.184Z,1.02
2023-01-30T06:08:29.531Z,0.91
2023-01-30T06:11:02.464Z,0.84
2023-01-30T06:13:29.571Z,0.81
2023-01-30T06:15:56.383Z,0.74
2023-01-30T06:18:23.300Z,0.75
2023-01-30T06:20:51.400Z,0.76
2023-01-30T06:23:18.999Z,0.73
2023-01-30T06:25:49.889Z,0.63
2023-01-30T06:28:17.922Z,0.66
2023-01-30T06:30:44.788Z,0.74
2023-01-30T06:33:11.986Z,0.79
2023-01-30T06:35:39.516Z,0.74
2023-01-30T06:38:06.804Z,0.75
2023-01-30T06:40:33.575Z,0.81
2023-01-30T06:43:00.409Z,0.96
2023-01-30T06:45:27.168Z,1.12
2023-01-30T06:47:55.729Z,1.20
2023-01-30T06:50:28.286Z,1.20
2023-01-30T06:52:55.513Z,1.24
2023-01-30T06:55:25.161Z,1.31
2023-01-30T06:58:04.622Z,1.25
2023-01-30T07:00:31.724Z,1.17
2023-01-30T07:02:58.845Z,1.09
2023-01-30T07:05:26.512Z,1.06
2023-01-30T07:07:53.278Z,1.10
2023-01-30T07:10:20.202Z,1.21
2023-01-30T07:12:48.130Z,1.21
2023-01-30T07:15:15.157Z,1.26
2023-01-30T07:17:42.128Z,1.28
2023-01-30T07:20:10.468Z,1.31
2023-01-30T07:22:37.383Z,1.25
2023-01-30T07:25:04.500Z,1.32
2023-01-30T07:27:31.355Z,1.40
2023-01-30T07:29:58.115Z,1.48
2023-01-30T07:32:25.019Z,1.57
2023-01-30T07:34:51.817Z,1.69
2023-01-30T07:37:18.549Z,1.79
2023-01-30T07:39:45.296Z,1.87
2023-01-30T07:42:12.025Z,1.90
2023-01-30T07:44:39.038Z,1.98
2023-01-30T07:47:05.816Z,2.04
2023-01-30T07:49:32.719Z,2.09
2023-01-30T07:51:59.455Z,2.19
2023-01-30T07:54:26.816Z,2.24
2023-01-30T07:56:53.518Z,2.39
2023-01-30T07:59:20.328Z,2.57
2023-01-30T08:01:47.079Z,2.58
2023-01-30T08:04:13.921Z,2.62
2023-01-30T08:06:40.662Z,2.67
2023-01-30T08:09:07.770Z,2.75
2023-01-30T08:11:35.174Z,2.86
2023-01-30T08:14:02.481Z,2.89
2023-01-30T08:16:29.294Z,3.07
2023-01-30T08:18:56.128Z,3.31
2023-01-30T08:21:22.850Z,3.46
2023-01-30T08:23:49.664Z,3.65
2023-01-30T08:26:16.551Z,3.80
2023-01-30T08:28:43.467Z,3.93
2023-01-30T08:31:14.887Z,4.04
2023-01-30T08:33:41.999Z,4.11
2023-01-30T08:36:09.397Z,4.14
2023-01-30T08:38:36.405Z,4.18
2023-01-30T08:41:05.613Z,4.38
2023-01-30T08:43:32.394Z,4.52
2023-01-30T08:45:59.188Z,4.62
2023-01-30T08:48:28.167Z,4.70
2023-01-30T08:50:56.557Z,4.89
2023-01-30T08:53:23.619Z,4.98
2023-01-30T08:55:53.864Z,5.07
2023-01-30T08:58:21.922Z,5.11
2023-01-30T09:00:50.323Z,5.06
2023-01-30T09:03:25.195Z,5.06
2023-01-30T09:05:56.277Z,5.05
2023-01-30T09:08:23.187Z,5.01
2023-01-30T09:10:49.915Z,5.03
2023-01-30T09:13:19.875Z,5.03
2023-01-30T09:15:46.690Z,5.08
2023-01-30T09:18:13.398Z,5.16
2023-01-30T09:20:40.192Z,5.27
2023-01-30T09:23:06.955Z,5.28
2023-01-30T09:25:33.735Z,5.24
2023-01-30T09:28:00.548Z,5.35
2023-01-30T09:30:27.466Z,5.35
2023-01-30T09:32:54.317Z,5.38
2023-01-30T09:35:21.121Z,5.42
2023-01-30T09:37:49.860Z,5.50
2023-01-30T09:40:27.166Z,5.60
2023-01-30T09:43:25.950Z,5.63
2023-01-30T09:46:01.227Z,5.74
2023-01-30T09:48:38.012Z,5.79
2023-01-30T09:51:48.042Z,5.79
2023-01-30T09:54:31.167Z,5.70
2023-01-30T09:57:22.570Z,5.86
2023-01-30T10:00:17.645Z,5.88
2023-01-30T10:03:00.077Z,5.87
2023-01-30T10:05:57.219Z,5.86
2023-01-30T10:08:37.489Z,5.93
2023-01-30T10:11:16.140Z,5.93
2023-01-30T10:14:04.532Z,5.97
2023-01-30T10:16:40.133Z,6.01
2023-01-30T10:19:26.136Z,6.07
2023-01-30T10:22:26.552Z,6.15
2023-01-30T10:25:14.417Z,6.36
2023-01-30T10:27:50.600Z,6.50
2023-01-30T10:30:18.474Z,6.51
2023-01-30T10:32:55.928Z,6.49
2023-01-30T10:35:27.078Z,6.59
2023-01-30T10:38:05.460Z,6.76
2023-01-30T10:40:52.408Z,6.70
2023-01-30T10:43:22.179Z,6.73
2023-01-30T10:45:58.002Z,6.68
2023-01-30T10:48:43.621Z,6.66
2023-01-30T10:51:42.543Z,6.74
2023-01-30T10:54:27.629Z,6.85
2023-01-30T10:57:40.032Z,7.06
2023-01-30T11:00:23.601Z,7.07
2023-01-30T11:03:24.979Z,7.06
2023-01-30T11:05:56.406Z,7.01
2023-01-30T11:08:29.197Z,6.94
2023-01-30T11:10:57.044Z,6.94
2023-01-30T11:13:34.374Z,7.11
2023-01-30T11:16:06.783Z,7.30
2023-01-30T11:19:17.648Z,7.37
2023-01-30T11:21:32.040Z,7.32
2023-01-30T11:24:14.506Z,7.27
2023-01-30T11:26:47.277Z,7.29
2023-01-30T11:29:23.590Z,7.21
2023-01-30T11:31:51.588Z,7.25
2023-01-30T11:34:20.785Z,7.29
2023-01-30T11:36:48.793Z,7.35
2023-01-30T11:39:17.628Z,7.42
2023-01-30T11:41:58.785Z,7.51
2023-01-30T11:44:30.767Z,7.56
2023-01-30T11:47:04.454Z,7.65
2023-01-30T11:49:46.899Z,7.56
2023-01-30T11:52:36.906Z,7.41
2023-01-30T11:55:11.258Z,7.43
2023-01-30T11:57:45.421Z,7.44
2023-01-30T12:00:25.024Z,7.41
2023-01-30T12:02:54.161Z,7.51
2023-01-30T12:05:34.775Z,7.51
2023-01-30T12:08:41.734Z,7.51
2023-01-30T12:11:42.202Z,7.53
2023-01-30T12:14:19.674Z,7.66
2023-01-30T12:17:12.115Z,7.70
2023-01-30T12:19:57.332Z,7.68
2023-01-30T12:22:46.016Z,7.71
2023-01-30T12:25:36.880Z,7.73
2023-01-30T12:28:14.364Z,7.86
2023-01-30T12:30:56.685Z,7.99
2023-01-30T12:33:28.772Z,8.23
2023-01-30T12:36:22.177Z,8.31
2023-01-30T12:39:25.847Z,8.46
2023-01-30T12:42:25.902Z,8.57
2023-01-30T12:44:58.749Z,8.67
2023-01-30T12:47:50.546Z,8.72
2023-01-30T12:50:29.526Z,8.68
2023-01-30T12:53:04.416Z,8.84
2023-01-30T12:56:01.693Z,8.98
2023-01-30T12:59:11.627Z,9.12
2023-01-30T13:01:48.144Z,9.29
2023-01-30T13:04:29.831Z,9.36
2023-01-30T13:07:28.179Z,9.42
2023-01-30T13:10:09.817Z,9.55
2023-01-30T13:12:39.321Z,9.61
2023-01-30T13:15:27.460Z,9.60
2023-01-30T13:18:15.671Z,9.75
2023-01-30T13:20:54.618Z,9.95
2023-01-30T13:23:39.170Z,9.79
2023-01-30T13:26:10.788Z,9.72
2023-01-30T13:28:45.847Z,9.78
2023-01-30T13:31:16.831Z,9.75
2023-01-30T13:33:46.090Z,9.90
2023-01-30T13:36:24.670Z,9.94
2023-01-30T13:39:03.530Z,9.99
2023-01-30T13:41:35.913Z,10.00
2023-01-30T13:44:16.927Z,9.93
2023-01-30T13:46:45.170Z,9.95
2023-01-30T13:49:46.772Z,9.90
2023-01-30T13:52:37.633Z,9.73
2023-01-30T13:55:33.492Z,9.73
2023-01-30T13:58:41.547Z,9.62
2023-01-30T14:01:08.391Z,9.72
2023-01-30T14:03:35.324Z,9.83
2023-01-30T14:06:06.108Z,9.74
2023-01-30T14:08:53.493Z,9.71
2023-01-30T14:11:31.065Z,9.60
2023-01-30T14:14:03.431Z,9.59
2023-01-30T14:16:46.081Z,9.54
2023-01-30T14:19:22.007Z,9.69
2023-01-30T14:21:57.722Z,9.76
2023-01-30T14:24:31.770Z,9.73
2023-01-30T14:26:58.466Z,9.58
2023-01-30T14:29:43.169Z,9.53
2023-01-30T14:32:14.464Z,9.43
2023-01-30T14:34:45.126Z,9.37
2023-01-30T14:37:42.096Z,9.45
2023-01-30T14:40:21.103Z,9.56
2023-01-30T14:43:12.865Z,9.55
2023-01-30T14:45:47.331Z,9.57
2023-01-30T14:48:44.473Z,9.49
2023-01-30T14:51:39.669Z,9.54
2023-01-30T14:54:13.320Z,9.67
2023-01-30T14:56:49.536Z,9.61
2023-01-30T14:59:16.255Z,9.57
2023-01-30T15:01:57.659Z,9.60
2023-01-30T15:04:27.846Z,9.63
2023-01-30T15:06:55.386Z,9.71
2023-01-30T15:09:28.288Z,10.03
2023-01-30T15:12:21.139Z,10.27
2023-01-30T15:15:18.851Z,10.33
2023-01-30T15:18:09.026Z,10.37
2023-01-30T15:20:54.415Z,10.38
2023-01-30T15:23:56.408Z,10.27
2023-01-30T15:27:02.317Z,10.12
2023-01-30T15:29:47.720Z,10.04
2023-01-30T15:32:34.843Z,10.05
2023-01-30T15:35:03.556Z,10.03
2023-01-30T15:37:37.897Z,10.00
2023-01-30T15:40:18.173Z,9.98
2023-01-30T15:43:02.040Z,9.83
2023-01-30T15:45:38.153Z,9.70
2023-01-30T15:48:14.231Z,9.62
2023-01-30T15:50:49.128Z,9.58
2023-01-30T15:53:17.042Z,9.56
2023-01-30T15:55:45.214Z,9.48
2023-01-30T15:58:19.510Z,9.35
2023-01-30T16:00:50.117Z,9.19
2023-01-30T16:03:21.737Z,9.07
2023-01-30T16:05:50.117Z,8.98
2023-01-30T16:08:21.724Z,8.84
2023-01-30T16:10:52.001Z,8.72
2023-01-30T16:13:21.138Z,8.62
2023-01-30T16:16:07.419Z,8.58
2023-01-30T16:18:57.514Z,8.50
2023-01-30T16:21:28.832Z,8.45
2023-01-30T16:23:55.500Z,8.38
2023-01-30T16:26:23.203Z,8.29
2023-01-30T16:28:58.091Z,8.27
2023-01-30T16:31:26.129Z,8.23
2023-01-30T16:33:53.195Z,8.18
2023-01-30T16:36:19.910Z,8.17
2023-01-30T16:38:49.102Z,8.16
2023-01-30T16:41:36.944Z,8.14
2023-01-30T16:44:23.229Z,8.13
2023-01-30T16:46:52.659Z,8.08
2023-01-30T16:49:24.866Z,7.94
2023-01-30T16:52:02.463Z,7.84
2023-01-30T16:54:31.343Z,7.84
2023-01-30T16:57:00.994Z,7.84
2023-01-30T16:59:33.638Z,7.78
2023-01-30T17:02:04.610Z,7.61
2023-01-30T17:04:34.200Z,7.51
2023-01-30T17:07:04.775Z,7.50
2023-01-30T17:09:40.790Z,7.53
2023-01-30T17:12:25.584Z,7.45
2023-01-30T17:15:14.469Z,7.48
2023-01-30T17:17:41.577Z,7.41
2023-01-30T17:20:09.332Z,7.38
2023-01-30T17:22:39.622Z,7.40
2023-01-30T17:25:17.998Z,7.33
2023-01-30T17:27:44.865Z,7.33
2023-01-30T17:30:16.082Z,7.24
2023-01-30T17:32:45.827Z,7.14
2023-01-30T17:35:12.992Z,7.10
2023-01-30T17:37:39.735Z,7.16
2023-01-30T17:40:17.387Z,7.14
2023-01-30T17:42:44.431Z,7.03
2023-01-30T17:45:11.838Z,7.02
2023-01-30T17:47:39.011Z,6.97
2023-01-30T17:50:06.141Z,7.04
2023-01-30T17:52:33.144Z,7.03
2023-01-30T17:54:59.902Z,7.04
2023-01-30T17:57:26.661Z,7.05
2023-01-30T17:59:55.282Z,7.02
2023-01-30T18:02:22.270Z,6.99
2023-01-30T18:04:49.032Z,7.05
2023-01-30T18:07:16.738Z,7.09
2023-01-30T18:09:43.508Z,7.13
2023-01-30T18:12:10.418Z,7.19
2023-01-30T18:14:38.274Z,7.19
2023-01-30T18:17:05.198Z,7.23
2023-01-30T18:19:32.073Z,7.29
2023-01-30T18:21:59.023Z,7.33
2023-01-30T18:24:26.163Z,7.36
2023-01-30T18:26:53.198Z,7.33
2023-01-30T18:29:20.165Z,7.40
2023-01-30T18:31:47.337Z,7.42
2023-01-30T18:34:14.345Z,7.40
2023-01-30T18:36:41.309Z,7.40
2023-01-30T18:39:08.204Z,7.43
2023-01-30T18:41:37.698Z,7.63
2023-01-30T18:44:06.747Z,7.87
2023-01-30T18:46:33.648Z,7.91
2023-01-30T18:49:00.945Z,7.87
2023-01-30T18:51:31.002Z,7.99
2023-01-30T18:53:58.678Z,8.04
2023-01-30T18:56:31.825Z,8.03
2023-01-30T18:59:04.483Z,8.04
2023-01-30T19:01:42.465Z,8.09
2023-01-30T19:04:11.548Z,8.15
2023-01-30T19:06:41.396Z,8.20
2023-01-30T19:09:11.988Z,8.13
2023-01-30T19:11:57.433Z,8.13
2023-01-30T19:14:24.295Z,8.07
2023-01-30T19:16:51.462Z,8.19
2023-01-30T19:19:18.514Z,8.25
2023-01-30T19:21:45.470Z,8.23
2023-01-30T19:24:15.154Z,8.23
2023-01-30T19:26:42.420Z,8.27
2023-01-30T19:29:09.851Z,8.31
2023-01-30T19:31:37.197Z,8.27
2023-01-30T19:34:06.374Z,8.28
2023-01-30T19:36:35.168Z,8.33
2023-01-30T19:39:03.684Z,8.28
2023-01-30T19:41:33.860Z,8.23
2023-01-30T19:44:02.612Z,8.16
2023-01-30T19:46:29.569Z,8.12
2023-01-30T19:48:57.164Z,8.11
2023-01-30T19:51:30.304Z,8.06
2023-01-30T19:53:59.732Z,8.07
2023-01-30T19:56:27.836Z,8.03
2023-01-30T19:58:57.459Z,8.05
2023-01-30T20:01:32.272Z,8.08
2023-01-30T20:03:59.634Z,8.09
2023-01-30T20:06:29.523Z,8.05
2023-01-30T20:09:02.202Z,7.98
2023-01-30T20:11:30.133Z,7.96
2023-01-30T20:13:58.583Z,7.90
2023-01-30T20:16:27.897Z,7.85
2023-01-30T20:18:58.124Z,7.82
2023-01-30T20:21:27.097Z,7.78
2023-01-30T20:26:23.780Z,7.74
2023-01-30T20:28:50.941Z,7.75
2023-01-30T20:31:21.212Z,7.75
2023-01-30T20:33:48.893Z,7.75
2023-01-30T20:36:22.182Z,7.83
2023-01-30T20:38:50.286Z,7.85
2023-01-30T20:41:22.143Z,7.82
2023-01-30T20:43:52.230Z,7.82
2023-01-30T20:46:23.317Z,7.88
2023-01-30T20:48:54.439Z,7.83
2023-01-30T20:51:24.943Z,7.79
2023-01-30T20:53:53.528Z,7.78
2023-01-30T20:56:21.761Z,7.72
2023-01-30T20:58:49.815Z,7.67
2023-01-30T21:01:19.664Z,7.63
2023-01-30T21:03:49.627Z,7.66
2023-01-30T21:06:41.532Z,7.67
2023-01-30T21:09:06.573Z,7.69
2023-01-30T21:11:34.120Z,7.73
2023-01-30T21:14:01.208Z,7.89
2023-01-30T21:16:30.978Z,8.05
2023-01-30T21:19:04.203Z,8.18
2023-01-30T21:21:34.105Z,8.20
2023-01-30T21:24:05.002Z,8.18
2023-01-30T21:26:35.864Z,8.22
2023-01-30T21:29:06.850Z,8.28
2023-01-30T21:31:37.181Z,8.26
2023-01-30T21:34:05.356Z,8.25
2023-01-30T21:36:32.510Z,8.26
2023-01-30T21:39:18.425Z,8.29
2023-01-30T21:42:12.621Z,8.34
2023-01-30T21:44:40.986Z,8.45
2023-01-30T21:47:08.259Z,8.52
2023-01-30T21:49:36.714Z,8.55
2023-01-30T21:52:04.309Z,8.55
2023-01-30T21:54:31.339Z,8.49
2023-01-30T21:56:58.288Z,8.41
2023-01-30T21:59:25.332Z,8.41
2023-01-30T22:01:52.218Z,8.41
2023-01-30T22:04:19.700Z,8.39
2023-01-30T22:06:46.538Z,8.37
2023-01-30T22:09:15.230Z,8.28
2023-01-30T22:11:42.397Z,8.27
2023-01-30T22:14:09.567Z,8.23
2023-01-30T22:16:36.567Z,8.18
2023-01-30T22:19:04.848Z,8.17
2023-01-30T22:21:36.308Z,8.15
2023-01-30T22:24:05.851Z,8.17
2023-01-30T22:26:34.089Z,8.12
2023-01-30T22:29:02.858Z,8.09
2023-01-30T22:31:34.458Z,8.15
2023-01-30T22:34:03.405Z,8.18
2023-01-30T22:36:32.267Z,8.18
2023-01-30T22:38:59.371Z,8.24
2023-01-30T22:41:27.942Z,8.20
2023-01-30T22:43:57.540Z,8.19
2023-01-30T22:46:28.151Z,8.17
2023-01-30T22:48:55.399Z,8.14
2023-01-30T22:51:25.043Z,8.12
2023-01-30T22:53:56.199Z,8.06
2023-01-30T22:56:24.833Z,8.04
2023-01-30T22:58:51.952Z,8.01
2023-01-30T23:01:21.561Z,8.00
2023-01-30T23:03:52.969Z,7.95
2023-01-30T23:06:20.158Z,7.92
2023-01-30T23:08:48.564Z,7.91
2023-01-30T23:11:20.768Z,7.89
2023-01-30T23:13:50.247Z,7.83
2023-01-30T23:16:20.389Z,7.79
2023-01-30T23:18:56.782Z,7.82
2023-01-30T23:21:24.801Z,7.81
2023-01-30T23:23:54.009Z,7.82
2023-01-30T23:26:22.533Z,7.83
2023-01-30T23:28:49.719Z,7.78
2023-01-30T23:31:20.197Z,7.81
2023-01-30T23:33:47.525Z,7.82
2023-01-30T23:36:15.025Z,7.78
2023-01-30T23:38:41.880Z,7.78
2023-01-30T23:41:13.831Z,7.77
2023-01-30T23:43:42.663Z,7.79
2023-01-30T23:46:30.974Z,7.76
2023-01-30T23:49:02.439Z,7.75
2023-01-30T23:51:31.566Z,7.76
2023-01-30T23:53:58.960Z,7.76
2023-01-30T23:56:27.958Z,7.65
2023-01-30T23:58:55.238Z,7.57
